createdAt,value
2018-09-04T00:01:12.411Z,26.42
2018-09-04T00:03:39.944Z,25.57
2018-09-04T00:06:07.665Z,25.08
2018-09-04T00:08:35.214Z,25.90
2018-09-04T00:11:02.734Z,26.17
2018-09-04T00:13:30.265Z,25.35
2018-09-04T00:15:57.774Z,25.55
2018-09-04T00:18:25.293Z,24.10
2018-09-04T00:20:52.810Z,24.65
2018-09-04T00:23:20.575Z,24.63
2018-09-04T00:25:48.104Z,23.67
2018-09-04T00:28:15.634Z,26.15
2018-09-04T00:30:43.158Z,25.65
2018-09-04T00:33:10.692Z,25.30
2018-09-04T00:35:38.227Z,26.42
2018-09-04T00:38:05.761Z,27.80
2018-09-04T00:40:33.289Z,28.00
2018-09-04T00:43:00.811Z,27.07
2018-09-04T00:45:28.361Z,27.67
2018-09-04T00:47:55.882Z,27.73
2018-09-04T00:50:23.420Z,29.00
2018-09-04T00:52:50.957Z,29.15
2018-09-04T00:55:18.492Z,30.02
2018-09-04T00:57:46.023Z,29.75
2018-09-04T01:00:13.557Z,30.55
2018-09-04T01:02:41.093Z,30.15
2018-09-04T01:05:08.634Z,29.23
2018-09-04T01:07:36.219Z,30.57
2018-09-04T01:10:03.808Z,32.67
2018-09-04T01:12:31.360Z,32.25
2018-09-04T01:14:58.912Z,34.35
2018-09-04T01:17:26.474Z,33.95
2018-09-04T01:19:54.010Z,30.25
2018-09-04T01:22:21.717Z,31.10
2018-09-04T01:24:49.279Z,29.18
2018-09-04T01:27:16.822Z,31.77
2018-09-04T01:29:44.355Z,33.78
2018-09-04T01:32:11.896Z,33.98
2018-09-04T01:34:39.561Z,33.70
2018-09-04T01:37:07.298Z,35.75
2018-09-04T01:39:34.835Z,32.65
2018-09-04T01:42:02.355Z,34.95
2018-09-04T01:44:29.908Z,35.33
2018-09-04T01:46:57.460Z,34.65
2018-09-04T01:49:25.022Z,37.25
2018-09-04T01:51:52.581Z,35.65
2018-09-04T01:54:20.128Z,35.63
2018-09-04T01:56:47.662Z,38.20
2018-09-04T01:59:15.208Z,37.45
2018-09-04T02:01:42.771Z,37.90
2018-09-04T02:04:10.326Z,38.10
2018-09-04T02:06:37.859Z,37.03
2018-09-04T02:09:06.015Z,34.23
2018-09-04T02:11:33.574Z,35.65
2018-09-04T02:14:01.110Z,33.23
2018-09-04T02:16:28.661Z,34.38
2018-09-04T02:18:56.224Z,35.78
2018-09-04T02:21:23.766Z,38.10
2018-09-04T02:23:51.317Z,37.85
2018-09-04T02:26:18.856Z,37.73
2018-09-04T02:28:46.404Z,38.48
2018-09-04T02:31:13.969Z,38.10
2018-09-04T02:33:41.506Z,40.23
2018-09-04T02:36:09.078Z,40.63
2018-09-04T02:38:36.633Z,40.95
2018-09-04T02:41:04.974Z,42.83
2018-09-04T02:43:32.514Z,40.10
2018-09-04T02:46:00.055Z,41.50
2018-09-04T02:48:27.583Z,43.87
2018-09-04T02:50:55.143Z,43.00
2018-09-04T02:53:22.674Z,40.25
2018-09-04T02:55:50.229Z,40.10
2018-09-04T02:58:17.828Z,39.30
2018-09-04T03:00:45.372Z,37.95
2018-09-04T03:03:12.906Z,38.70
2018-09-04T03:05:40.454Z,41.33
2018-09-04T03:08:07.978Z,43.60
2018-09-04T03:10:35.525Z,44.10
2018-09-04T03:13:03.090Z,46.23
2018-09-04T03:15:30.645Z,47.63
2018-09-04T03:17:58.176Z,48.20
2018-09-04T03:20:25.726Z,46.35
2018-09-04T03:22:53.489Z,45.00
2018-09-04T03:25:21.085Z,45.88
2018-09-04T03:27:48.645Z,47.33
2018-09-04T03:30:16.186Z,47.30
2018-09-04T03:32:50.284Z,46.48
2018-09-04T03:35:17.828Z,44.23
2018-09-04T03:37:45.347Z,45.43
2018-09-04T03:40:12.886Z,42.73
2018-09-04T03:42:40.735Z,44.03
2018-09-04T03:45:08.810Z,43.07
2018-09-04T03:47:36.457Z,41.13
2018-09-04T03:50:04.260Z,44.37
2018-09-04T03:52:31.809Z,45.67
2018-09-04T03:54:59.364Z,46.08
2018-09-04T03:57:26.916Z,49.27
2018-09-04T03:59:54.446Z,49.97
2018-09-04T04:02:21.989Z,53.93
2018-09-04T04:04:49.511Z,60.07
2018-09-04T04:07:17.101Z,58.67
2018-09-04T04:09:44.641Z,59.80
2018-09-04T04:12:12.201Z,55.07
2018-09-04T04:14:39.738Z,50.67
2018-09-04T04:17:07.314Z,51.28
2018-09-04T04:19:34.867Z,56.28
2018-09-04T04:22:02.416Z,56.68
2018-09-04T04:24:29.972Z,57.35
2018-09-04T04:26:57.511Z,58.93
2018-09-04T04:29:25.074Z,60.60
2018-09-04T04:31:52.608Z,66.13
2018-09-04T04:34:20.144Z,62.17
2018-09-04T04:36:47.690Z,64.87
2018-09-04T04:39:15.236Z,65.57
2018-09-04T04:41:42.782Z,68.40
2018-09-04T04:44:10.340Z,66.60
2018-09-04T04:46:37.874Z,70.32
2018-09-04T04:49:05.760Z,68.05
2018-09-04T04:51:33.306Z,62.33
2018-09-04T04:54:00.860Z,61.02
2018-09-04T04:56:28.543Z,57.95
2018-09-04T04:58:56.089Z,57.48
2018-09-04T05:01:23.649Z,58.48
2018-09-04T05:03:51.198Z,56.42
2018-09-04T05:06:18.759Z,56.68
2018-09-04T05:08:46.304Z,54.93
2018-09-04T05:11:13.860Z,55.03
2018-09-04T05:13:41.381Z,53.42
2018-09-04T05:16:08.927Z,57.33
2018-09-04T05:18:36.481Z,56.00
2018-09-04T05:21:04.055Z,53.95
2018-09-04T05:23:31.598Z,55.50
2018-09-04T05:25:59.128Z,52.95
2018-09-04T05:28:26.669Z,51.53
2018-09-04T05:30:54.252Z,49.58
2018-09-04T05:33:25.232Z,51.40
2018-09-04T05:35:54.453Z,52.60
2018-09-04T05:38:21.986Z,49.80
2018-09-04T05:40:49.543Z,51.45
2018-09-04T05:43:25.117Z,52.23
2018-09-04T05:45:53.497Z,53.05
2018-09-04T05:48:21.050Z,53.92
2018-09-04T05:50:48.594Z,54.93
2018-09-04T05:53:16.180Z,53.02
2018-09-04T05:55:43.742Z,50.35
2018-09-04T05:58:11.286Z,51.58
2018-09-04T06:00:42.938Z,50.20
2018-09-04T06:03:10.592Z,49.53
2018-09-04T06:05:38.152Z,49.88
2018-09-04T06:08:05.837Z,48.25
2018-09-04T06:10:33.383Z,46.83
2018-09-04T06:13:00.911Z,47.73
2018-09-04T06:15:28.471Z,48.00
2018-09-04T06:17:56.030Z,47.48
2018-09-04T06:20:23.616Z,47.90
2018-09-04T06:22:51.201Z,48.75
2018-09-04T06:25:18.783Z,47.40
2018-09-04T06:27:46.360Z,45.38
2018-09-04T06:30:14.296Z,46.10
2018-09-04T06:32:41.847Z,43.28
2018-09-04T06:35:09.482Z,43.98
2018-09-04T06:37:37.034Z,42.08
2018-09-04T06:40:04.727Z,41.68
2018-09-04T06:42:32.302Z,39.65
2018-09-04T06:44:59.888Z,38.70
2018-09-04T06:47:27.458Z,37.17
2018-09-04T06:49:55.027Z,37.17
2018-09-04T06:52:22.574Z,36.28
2018-09-04T06:54:50.106Z,36.30
2018-09-04T06:57:17.664Z,35.95
2018-09-04T06:59:45.218Z,36.58
2018-09-04T07:02:12.903Z,33.53
2018-09-04T07:04:40.616Z,34.90
2018-09-04T07:07:08.201Z,33.15
2018-09-04T07:09:35.749Z,33.48
2018-09-04T07:12:03.328Z,32.88
2018-09-04T07:14:30.894Z,32.28
2018-09-04T07:16:58.503Z,31.05
2018-09-04T07:19:26.003Z,30.77
2018-09-04T07:21:53.538Z,30.12
2018-09-04T07:24:21.189Z,30.17
2018-09-04T07:26:48.650Z,31.55
2018-09-04T07:29:16.196Z,29.70
2018-09-04T07:31:43.884Z,30.25
2018-09-04T07:34:11.424Z,29.37
2018-09-04T07:36:39.013Z,28.47
2018-09-04T07:39:08.894Z,28.62
2018-09-04T07:41:36.550Z,28.83
2018-09-04T07:44:04.062Z,27.48
2018-09-04T07:46:31.619Z,28.20
2018-09-04T07:48:59.159Z,28.27
2018-09-04T07:51:26.806Z,27.75
2018-09-04T07:53:54.401Z,27.40
2018-09-04T07:56:21.936Z,28.25
2018-09-04T07:58:49.483Z,26.93
2018-09-04T08:01:17.060Z,26.73
2018-09-04T08:03:44.617Z,27.32
2018-09-04T08:06:12.186Z,25.80
2018-09-04T08:08:39.737Z,26.75
2018-09-04T08:11:07.319Z,27.48
2018-09-04T08:13:34.869Z,26.10
2018-09-04T08:16:02.425Z,25.68
2018-09-04T08:18:29.984Z,26.48
2018-09-04T08:20:57.777Z,27.45
2018-09-04T08:23:25.308Z,28.05
2018-09-04T08:25:52.858Z,26.05
2018-09-04T08:28:20.404Z,27.32
2018-09-04T08:30:47.945Z,25.40
2018-09-04T08:33:15.548Z,24.25
2018-09-04T08:35:43.063Z,25.00
2018-09-04T08:38:10.639Z,24.25
2018-09-04T08:40:38.187Z,24.70
2018-09-04T08:43:06.239Z,24.37
2018-09-04T08:45:33.789Z,24.12
2018-09-04T08:48:02.435Z,23.92
2018-09-04T08:50:31.835Z,22.85
2018-09-04T08:52:59.421Z,23.70
2018-09-04T08:55:27.057Z,22.07
2018-09-04T08:57:54.542Z,22.80
2018-09-04T09:00:22.071Z,23.22
2018-09-04T09:02:49.630Z,24.35
2018-09-04T09:05:17.186Z,23.10
2018-09-04T09:07:44.737Z,23.65
2018-09-04T09:10:12.307Z,22.60
2018-09-04T09:12:39.831Z,24.35
2018-09-04T09:15:07.354Z,22.73
2018-09-04T09:17:34.878Z,22.85
2018-09-04T09:20:02.438Z,24.55
2018-09-04T09:22:29.981Z,23.10
2018-09-04T09:24:57.511Z,24.87
2018-09-04T09:27:25.047Z,22.48
2018-09-04T09:29:52.575Z,23.98
2018-09-04T09:32:20.103Z,24.23
2018-09-04T09:34:47.619Z,24.57
2018-09-04T09:37:15.145Z,24.35
2018-09-04T09:39:42.659Z,24.67
2018-09-04T09:42:12.034Z,25.00
2018-09-04T09:44:39.998Z,25.37
2018-09-04T09:47:07.537Z,23.65
2018-09-04T09:49:35.063Z,21.95
2018-09-04T09:52:02.579Z,24.63
2018-09-04T09:54:30.120Z,23.25
2018-09-04T09:56:57.797Z,24.92
2018-09-04T09:59:25.367Z,24.60
2018-09-04T10:01:58.791Z,24.77
2018-09-04T10:04:26.332Z,23.02
2018-09-04T10:06:53.941Z,23.30
2018-09-04T10:09:21.635Z,22.73
2018-09-04T10:11:49.250Z,23.32
2018-09-04T10:14:16.816Z,22.13
2018-09-04T10:16:44.405Z,22.55
2018-09-04T10:19:12.186Z,21.57
2018-09-04T10:21:39.746Z,20.02
2018-09-04T10:24:07.414Z,21.45
2018-09-04T10:26:35.098Z,21.80
2018-09-04T10:29:02.574Z,20.68
2018-09-04T10:31:30.133Z,20.80
2018-09-04T10:33:57.691Z,20.17
2018-09-04T10:36:25.361Z,20.60
2018-09-04T10:38:58.551Z,17.67
2018-09-04T10:41:26.129Z,17.67
2018-09-04T10:43:53.709Z,17.77
2018-09-04T10:46:21.254Z,18.42
2018-09-04T10:48:48.815Z,18.73
2018-09-04T10:51:16.358Z,18.73
2018-09-04T10:53:43.901Z,18.92
2018-09-04T10:56:11.459Z,18.17
2018-09-04T10:58:39.011Z,19.07
2018-09-04T11:01:06.575Z,19.40
2018-09-04T11:03:34.121Z,16.05
2018-09-04T11:06:01.681Z,16.87
2018-09-04T11:08:29.208Z,16.00
2018-09-04T11:10:56.749Z,17.37
2018-09-04T11:13:24.305Z,18.05
2018-09-04T11:15:53.333Z,18.45
2018-09-04T11:18:20.893Z,17.57
2018-09-04T11:20:48.424Z,17.82
2018-09-04T11:23:15.966Z,17.65
2018-09-04T11:25:43.508Z,17.45
2018-09-04T11:28:11.049Z,16.95
2018-09-04T11:30:38.622Z,16.25
2018-09-04T11:33:06.148Z,15.98
2018-09-04T11:35:33.697Z,15.55
2018-09-04T11:38:01.272Z,15.50
2018-09-04T11:40:28.811Z,14.85
2018-09-04T11:42:56.323Z,14.28
2018-09-04T11:45:23.864Z,14.75
2018-09-04T11:47:51.416Z,14.78
2018-09-04T11:50:18.939Z,14.53
2018-09-04T11:52:46.478Z,14.20
2018-09-04T11:55:14.014Z,13.65
2018-09-04T11:57:41.560Z,13.70
2018-09-04T12:00:14.655Z,14.25
2018-09-04T12:02:42.230Z,13.60
2018-09-04T12:05:09.758Z,14.28
2018-09-04T12:07:37.279Z,13.60
2018-09-04T12:10:05.906Z,13.30
2018-09-04T12:12:34.467Z,14.23
2018-09-04T12:15:01.851Z,12.90
2018-09-04T12:17:29.395Z,13.65
2018-09-04T12:21:03.336Z,12.93
2018-09-04T12:23:30.764Z,12.53
2018-09-04T12:25:59.468Z,12.82
2018-09-04T12:28:27.128Z,13.03
2018-09-04T12:30:55.188Z,13.48
2018-09-04T12:33:22.756Z,12.53
2018-09-04T12:35:50.292Z,13.68
2018-09-04T12:38:19.383Z,12.10
2018-09-04T12:40:47.386Z,12.25
2018-09-04T12:43:36.660Z,11.80
2018-09-04T12:46:04.644Z,12.30
2018-09-04T12:48:32.215Z,11.75
2018-09-04T12:51:01.073Z,11.70
2018-09-04T12:53:29.550Z,12.63
2018-09-04T12:55:57.097Z,11.57
2018-09-04T12:58:24.634Z,12.58
2018-09-04T13:00:53.142Z,12.65
2018-09-04T13:03:22.073Z,12.37
2018-09-04T13:05:49.631Z,12.47
2018-09-04T13:08:18.120Z,11.53
2018-09-04T13:10:45.670Z,11.70
2018-09-04T13:13:13.230Z,11.45
2018-09-04T13:15:42.428Z,11.95
2018-09-04T13:18:10.014Z,12.23
2018-09-04T13:20:37.565Z,11.40
2018-09-04T13:23:12.098Z,12.00
2018-09-04T13:25:39.656Z,11.70
2018-09-04T13:28:07.393Z,11.75
2018-09-04T13:30:34.960Z,11.30
2018-09-04T13:33:02.530Z,11.60
2018-09-04T13:35:30.081Z,12.00
2018-09-04T13:37:57.635Z,12.35
2018-09-04T13:40:25.233Z,11.57
2018-09-04T13:42:52.801Z,11.53
2018-09-04T13:45:21.411Z,12.30
2018-09-04T13:47:49.004Z,11.12
2018-09-04T13:50:16.597Z,10.08
2018-09-04T13:52:44.147Z,11.93
2018-09-04T13:55:11.699Z,11.20
2018-09-04T13:57:39.233Z,10.90
2018-09-04T14:00:08.140Z,11.63
2018-09-04T14:02:35.698Z,10.65
2018-09-04T14:05:03.325Z,11.40
2018-09-04T14:07:30.863Z,11.45
2018-09-04T14:09:58.417Z,11.35
2018-09-04T14:12:25.958Z,11.40
2018-09-04T14:14:53.487Z,10.95
2018-09-04T14:17:21.182Z,11.97
2018-09-04T14:19:48.717Z,10.35
2018-09-04T14:22:16.307Z,10.70
2018-09-04T14:24:43.878Z,11.15
2018-09-04T14:27:11.387Z,10.78
2018-09-04T14:30:16.241Z,10.55
2018-09-04T14:32:36.448Z,10.78
2018-09-04T14:35:05.117Z,10.40
2018-09-04T14:37:32.639Z,9.98
2018-09-04T14:40:00.165Z,10.75
2018-09-04T14:42:27.690Z,11.10
2018-09-04T14:44:55.257Z,10.65
2018-09-04T14:47:22.767Z,10.98
2018-09-04T14:49:50.300Z,10.60
2018-09-04T14:52:17.829Z,11.38
2018-09-04T14:54:46.351Z,11.00
2018-09-04T14:57:13.880Z,10.55
2018-09-04T14:59:41.417Z,9.75
2018-09-04T15:02:08.960Z,10.38
2018-09-04T15:04:36.482Z,9.48
2018-09-04T15:07:04.212Z,10.10
2018-09-04T15:09:31.755Z,10.18
2018-09-04T15:11:59.299Z,9.50
2018-09-04T15:14:26.844Z,10.35
2018-09-04T15:16:56.582Z,9.70
2018-09-04T15:19:24.134Z,9.60
2018-09-04T15:21:51.679Z,9.70
2018-09-04T15:24:19.240Z,9.80
2018-09-04T15:26:46.784Z,10.38
2018-09-04T15:29:14.343Z,9.83
2018-09-04T15:31:41.942Z,10.50
2018-09-04T15:34:09.457Z,9.95
2018-09-04T15:36:37.006Z,9.60
2018-09-04T15:39:06.313Z,10.80
2018-09-04T15:41:33.910Z,10.40
2018-09-04T15:44:01.472Z,10.15
2018-09-04T15:46:29.006Z,10.65
2018-09-04T15:49:02.274Z,10.23
2018-09-04T15:51:29.829Z,10.00
2018-09-04T15:53:57.350Z,10.00
2018-09-04T15:56:24.882Z,10.18
2018-09-04T15:58:52.405Z,9.53
2018-09-04T16:01:19.923Z,9.95
2018-09-04T16:03:47.448Z,9.80
2018-09-04T16:06:14.999Z,10.00
2018-09-04T16:08:42.583Z,8.68
2018-09-04T16:11:10.107Z,10.30
2018-09-04T16:13:37.649Z,9.58
2018-09-04T16:16:05.357Z,9.75
2018-09-04T16:18:32.918Z,9.80
2018-09-04T16:21:00.459Z,10.05
2018-09-04T16:23:28.009Z,10.10
2018-09-04T16:25:55.555Z,9.98
2018-09-04T16:28:23.105Z,10.18
2018-09-04T16:30:50.667Z,10.03
2018-09-04T16:33:18.223Z,10.18
2018-09-04T16:35:45.770Z,10.03
2018-09-04T16:38:13.302Z,9.75
2018-09-04T16:40:40.847Z,10.50
2018-09-04T16:43:08.387Z,10.63
2018-09-04T16:45:35.936Z,10.48
2018-09-04T16:48:03.520Z,10.10
2018-09-04T16:50:31.080Z,10.63
2018-09-04T16:52:58.602Z,10.53
2018-09-04T16:55:26.143Z,9.40
2018-09-04T16:57:53.702Z,10.00
2018-09-04T17:00:21.263Z,10.15
2018-09-04T17:02:48.826Z,9.73
2018-09-04T17:05:16.398Z,10.38
2018-09-04T17:07:43.978Z,10.10
2018-09-04T17:10:11.721Z,10.23
2018-09-04T17:12:39.276Z,10.00
2018-09-04T17:15:06.842Z,10.90
2018-09-04T17:17:34.370Z,10.43
2018-09-04T17:20:02.082Z,10.45
2018-09-04T17:22:29.611Z,10.38
2018-09-04T17:24:57.127Z,10.80
2018-09-04T17:27:24.681Z,9.93
2018-09-04T17:29:52.232Z,9.58
2018-09-04T17:32:19.829Z,10.75
2018-09-04T17:34:47.317Z,10.68
2018-09-04T17:37:14.869Z,10.38
2018-09-04T17:39:42.396Z,10.32
2018-09-04T17:42:09.937Z,10.55
2018-09-04T17:44:37.478Z,10.90
2018-09-04T17:47:05.220Z,10.03
2018-09-04T17:49:32.764Z,10.32
2018-09-04T17:52:00.300Z,10.35
2018-09-04T17:54:27.821Z,9.98
2018-09-04T17:56:55.350Z,10.65
2018-09-04T17:59:22.870Z,10.15
2018-09-04T18:01:50.449Z,10.30
2018-09-04T18:04:17.974Z,10.53
2018-09-04T18:06:45.542Z,10.60
2018-09-04T18:09:13.077Z,10.32
2018-09-04T18:11:40.636Z,11.43
2018-09-04T18:14:08.174Z,11.03
2018-09-04T18:16:35.727Z,10.80
2018-09-04T18:19:03.267Z,10.98
2018-09-04T18:21:30.839Z,10.68
2018-09-04T18:30:01.990Z,11.25
2018-09-04T18:32:29.694Z,10.55
2018-09-04T18:34:57.231Z,10.98
2018-09-04T18:37:24.784Z,10.32
2018-09-04T18:39:52.333Z,10.58
2018-09-04T18:42:19.913Z,10.88
2018-09-04T18:44:47.447Z,10.85
2018-09-04T18:47:14.998Z,10.55
2018-09-04T18:49:42.522Z,11.83
2018-09-04T18:52:10.073Z,11.12
2018-09-04T18:54:37.614Z,11.05
2018-09-04T18:57:05.185Z,11.43
2018-09-04T18:59:32.801Z,11.35
2018-09-04T19:02:00.294Z,10.28
2018-09-04T19:04:27.835Z,10.82
2018-09-04T19:06:55.431Z,10.78
2018-09-04T19:09:22.937Z,11.68
2018-09-04T19:11:50.502Z,12.03
2018-09-04T19:14:18.066Z,11.65
2018-09-04T19:16:45.589Z,11.95
2018-09-04T19:19:13.136Z,12.40
2018-09-04T19:21:40.671Z,11.33
2018-09-04T19:24:08.257Z,11.20
2018-09-04T19:26:35.758Z,10.78
2018-09-04T19:29:03.892Z,11.65
2018-09-04T19:31:31.493Z,11.25
2018-09-04T19:33:59.028Z,10.65
2018-09-04T19:36:26.576Z,10.32
2018-09-04T19:38:54.111Z,10.55
2018-09-04T19:41:21.647Z,11.05
2018-09-04T19:43:49.173Z,11.10
2018-09-04T19:46:16.721Z,11.45
2018-09-04T19:48:44.308Z,12.73
2018-09-04T19:51:11.813Z,11.33
2018-09-04T19:53:39.333Z,11.57
2018-09-04T19:56:06.866Z,10.88
2018-09-04T19:58:34.382Z,11.73
2018-09-04T20:01:01.930Z,11.55
2018-09-04T20:03:29.477Z,11.40
2018-09-04T20:05:57.123Z,10.38
2018-09-04T20:08:24.663Z,12.18
2018-09-04T20:10:52.178Z,11.20
2018-09-04T20:13:19.765Z,10.85
2018-09-04T20:15:47.275Z,11.53
2018-09-04T20:18:14.822Z,11.12
2018-09-04T20:20:42.342Z,10.70
2018-09-04T20:23:09.889Z,11.38
2018-09-04T20:25:37.427Z,11.57
2018-09-04T20:28:04.956Z,10.78
2018-09-04T20:30:32.542Z,10.23
2018-09-04T20:33:00.077Z,10.50
2018-09-04T20:35:27.687Z,10.08
2018-09-04T20:37:55.211Z,9.25
2018-09-04T20:40:22.745Z,10.82
2018-09-04T20:42:50.272Z,10.50
2018-09-04T20:45:17.804Z,10.95
2018-09-04T20:47:45.343Z,10.53
2018-09-04T20:50:12.875Z,9.75
2018-09-04T20:52:40.400Z,10.35
2018-09-04T20:55:07.927Z,9.95
2018-09-04T20:57:36.659Z,9.93
2018-09-04T21:00:25.320Z,9.20
2018-09-04T21:03:10.575Z,8.75
2018-09-04T21:05:55.801Z,8.60
2018-09-04T21:08:38.481Z,9.05
2018-09-04T21:11:06.666Z,10.03
2018-09-04T21:13:34.255Z,8.83
2018-09-04T21:16:01.807Z,10.05
2018-09-04T21:18:29.364Z,9.70
2018-09-04T21:21:22.559Z,9.43
2018-09-04T21:23:50.091Z,10.05
2018-09-04T21:26:17.623Z,9.13
2018-09-04T21:28:45.182Z,8.88
2018-09-04T21:31:12.736Z,10.35
2018-09-04T21:33:40.292Z,10.40
2018-09-04T21:36:07.848Z,10.15
2018-09-04T21:38:52.124Z,10.80
2018-09-04T21:41:19.695Z,10.75
2018-09-04T21:43:52.971Z,11.05
2018-09-04T21:46:32.548Z,11.18
2018-09-04T21:49:07.253Z,11.22
2018-09-04T21:51:34.825Z,9.88
2018-09-04T21:54:10.779Z,11.18
2018-09-04T21:56:38.310Z,11.18
2018-09-04T21:59:05.870Z,11.22
2018-09-04T22:01:39.388Z,11.18
2018-09-04T22:04:06.938Z,10.85
2018-09-04T22:06:34.475Z,10.88
2018-09-04T22:09:02.086Z,11.28
2018-09-04T22:11:29.653Z,11.25
2018-09-04T22:13:57.221Z,11.30
2018-09-04T22:16:24.765Z,12.20
2018-09-04T22:18:52.318Z,11.83
2018-09-04T22:21:19.850Z,12.23
2018-09-04T22:23:47.407Z,11.63
2018-09-04T22:26:14.969Z,12.33
2018-09-04T22:28:42.523Z,11.53
2018-09-04T22:31:20.137Z,12.20
2018-09-04T22:33:47.666Z,12.03
2018-09-04T22:36:15.213Z,12.43
2018-09-04T22:38:42.750Z,12.28
2018-09-04T22:41:10.309Z,12.58
2018-09-04T22:43:38.132Z,12.37
2018-09-04T22:46:06.201Z,11.60
2018-09-04T22:48:33.745Z,11.15
2018-09-04T22:51:06.936Z,11.20
2018-09-04T22:53:34.471Z,11.78
2018-09-04T22:56:02.033Z,10.90
2018-09-04T22:58:29.599Z,10.80
2018-09-04T23:00:57.149Z,11.40
2018-09-04T23:03:24.690Z,10.70
2018-09-04T23:05:54.360Z,11.43
2018-09-04T23:08:22.322Z,11.43
2018-09-04T23:10:49.826Z,11.18
2018-09-04T23:13:17.347Z,11.45
2018-09-04T23:15:44.863Z,10.82
2018-09-04T23:18:12.876Z,11.95
2018-09-04T23:20:40.735Z,10.63
2018-09-04T23:23:08.252Z,10.63
2018-09-04T23:25:35.776Z,10.38
2018-09-04T23:28:03.319Z,10.80
2018-09-04T23:30:30.872Z,11.45
2018-09-04T23:32:58.413Z,11.03
2018-09-04T23:35:26.005Z,11.08
2018-09-04T23:37:53.511Z,9.95
2018-09-04T23:40:21.054Z,10.72
2018-09-04T23:42:48.582Z,10.38
2018-09-04T23:45:16.120Z,9.88
2018-09-04T23:47:43.894Z,10.10
2018-09-04T23:50:11.412Z,10.40
2018-09-04T23:52:39.009Z,10.55
2018-09-04T23:55:06.553Z,10.15
2018-09-04T23:57:34.065Z,10.15
